Time;durP1;ratioP1;P1;durP2;ratioP2;P2;SDS_P1;SDS_P2;PMS_P1;PMS_P2;Temp;Humidity;BMP_temperature;BMP_pressure;BME280_temperature;BME280_humidity;BME280_pressure;Samples;Min_cycle;Max_cycle;Signal;HPM_P1;HPM_P2
2023/09/28 00:01:35;;;;;;;2.40;1.50;;;;;;;19.31;68.51;100391.19;4990615;28;20244;-68
2023/09/28 00:04:01;;;;;;;3.00;1.67;;;;;;;19.30;68.69;100386.69;4991420;28;20445;-69
2023/09/28 00:06:27;;;;;;;4.10;1.77;;;;;;;19.32;68.59;100389.16;4979553;28;20563;-68
2023/09/28 00:08:52;;;;;;;2.67;1.40;;;;;;;19.32;68.46;100394.91;4985534;28;20448;-68
2023/09/28 00:11:18;;;;;;;2.77;1.47;;;;;;;19.32;68.47;100395.69;4983938;28;20208;-68
2023/09/28 00:13:43;;;;;;;2.17;1.30;;;;;;;19.31;68.51;100405.50;4991418;28;20193;-68
2023/09/28 00:16:09;;;;;;;3.47;1.93;;;;;;;19.31;68.57;100398.97;4974676;28;20268;-68
2023/09/28 00:18:34;;;;;;;3.67;1.57;;;;;;;19.31;68.37;100411.22;4989580;28;20170;-68
2023/09/28 00:21:01;;;;;;;3.90;1.97;;;;;;;19.31;68.72;100398.97;4955841;28;20166;-68
2023/09/28 00:23:26;;;;;;;3.00;1.70;;;;;;;19.31;68.47;100396.91;4983516;28;20526;-68
2023/09/28 00:25:52;;;;;;;2.40;1.43;;;;;;;19.31;68.52;100391.19;5007649;28;20416;-68
2023/09/28 00:28:17;;;;;;;2.37;1.53;;;;;;;19.31;68.50;100385.47;4990104;28;20291;-68
2023/09/28 00:30:44;;;;;;;3.10;1.93;;;;;;;19.30;68.75;100383.81;4973901;28;20193;-68
2023/09/28 00:33:09;;;;;;;3.13;1.97;;;;;;;19.30;68.81;100392.41;4955964;28;20223;-68
2023/09/28 00:35:35;;;;;;;2.30;1.60;;;;;;;19.31;68.28;100382.59;4948851;28;20827;-68
2023/09/28 00:38:00;;;;;;;3.37;2.10;;;;;;;19.30;68.65;100369.50;5006634;28;20177;-68
2023/09/28 00:40:31;;;;;;;2.80;1.70;;;;;;;19.30;68.49;100366.66;4990395;28;20184;-67
2023/09/28 00:42:57;;;;;;;2.40;1.60;;;;;;;19.30;68.75;100360.91;5004729;28;20161;-69
2023/09/28 00:45:22;;;;;;;2.40;1.60;;;;;;;19.30;68.71;100369.50;4988738;28;20450;-69
2023/09/28 00:47:49;;;;;;;2.80;1.60;;;;;;;19.32;68.58;100381.38;5006491;28;20208;-67
2023/09/28 00:50:15;;;;;;;3.50;1.60;;;;;;;19.30;68.47;100380.97;4988653;28;20188;-68
2023/09/28 00:52:41;;;;;;;2.97;1.83;;;;;;;19.31;68.75;100379.75;5005066;28;21038;-68
2023/09/28 00:55:08;;;;;;;3.60;1.63;;;;;;;19.31;68.41;100387.53;4977066;28;20420;-68
2023/09/28 00:57:35;;;;;;;3.83;1.80;;;;;;;19.29;68.56;100379.31;4975947;28;20416;-69
2023/09/28 01:00:38;;;;;;;3.20;2.00;;;;;;;19.30;68.73;100380.13;4990719;28;20435;-72
2023/09/28 01:03:05;;;;;;;3.10;1.50;;;;;;;19.31;68.53;100396.91;5000820;28;20448;-68
2023/09/28 01:05:34;;;;;;;2.83;1.77;;;;;;;19.31;68.62;100405.50;4971054;28;20431;-69
2023/09/28 01:08:18;;;;;;;3.80;1.67;;;;;;;19.30;68.74;100403.03;4992147;28;20541;-68
2023/09/28 01:10:44;;;;;;;2.73;1.70;;;;;;;19.30;68.78;100398.13;4973722;28;20939;-68
2023/09/28 01:13:20;;;;;;;2.40;1.40;;;;;;;19.30;68.70;100400.16;4956912;28;20432;-68
2023/09/28 01:15:46;;;;;;;2.70;1.70;;;;;;;19.31;68.66;100414.09;4974871;28;20423;-69
2023/09/28 01:18:15;;;;;;;2.30;1.60;;;;;;;19.31;68.54;100416.94;4960616;28;20445;-68
2023/09/28 01:20:44;;;;;;;2.43;1.70;;;;;;;19.31;68.39;100421.88;4972440;28;20409;-68
2023/09/28 01:23:09;;;;;;;2.80;1.70;;;;;;;19.30;68.57;100412.44;4971900;28;20436;-68
2023/09/28 01:25:36;;;;;;;2.97;1.93;;;;;;;19.31;68.60;100416.16;4973891;28;20444;-69
2023/09/28 01:28:01;;;;;;;3.50;1.50;;;;;;;19.31;68.44;100404.69;4970695;28;20240;-68
2023/09/28 01:30:27;;;;;;;2.70;1.57;;;;;;;19.30;68.71;100403.84;4971936;28;20490;-68
2023/09/28 01:32:52;;;;;;;2.50;1.60;;;;;;;19.30;68.53;100411.59;4994870;28;20272;-68
2023/09/28 01:35:18;;;;;;;2.47;1.60;;;;;;;19.29;68.65;100401.38;4987093;28;20221;-68
2023/09/28 01:38:04;;;;;;;3.33;1.80;;;;;;;19.30;68.73;100411.59;4985384;28;20208;-69
2023/09/28 01:40:30;;;;;;;2.50;1.53;;;;;;;19.30;68.74;100417.34;5006972;28;20559;-68
2023/09/28 01:42:55;;;;;;;2.10;1.40;;;;;;;19.30;68.75;100423.06;4990015;28;20424;-67
2023/09/28 01:45:21;;;;;;;3.43;1.60;;;;;;;19.30;68.67;100421.03;4985752;28;20692;-68
2023/09/28 01:47:46;;;;;;;2.57;1.77;;;;;;;19.30;68.59;100421.03;4953711;28;20214;-68
2023/09/28 01:50:12;;;;;;;2.97;1.60;;;;;;;19.30;68.67;100414.47;4953872;28;20170;-69
2023/09/28 01:52:37;;;;;;;3.03;1.57;;;;;;;19.30;68.54;100408.75;4955341;28;20248;-68
2023/09/28 01:55:03;;;;;;;3.07;1.90;;;;;;;19.29;68.74;100402.22;4965498;28;20196;-68
2023/09/28 01:57:28;;;;;;;6.20;1.80;;;;;;;19.29;68.50;100402.22;4978888;28;20188;-69
2023/09/28 01:59:54;;;;;;;2.20;1.50;;;;;;;19.30;68.62;100403.84;4986178;28;20177;-68
2023/09/28 02:02:21;;;;;;;2.50;1.53;;;;;;;19.30;68.51;100386.69;4991527;28;20780;-68
2023/09/28 02:04:46;;;;;;;2.73;1.80;;;;;;;19.30;68.55;100383.81;4995424;28;20272;-68
2023/09/28 02:07:12;;;;;;;3.10;1.90;;;;;;;19.30;68.64;100386.69;4984432;28;20849;-69
2023/09/28 02:09:37;;;;;;;2.77;1.80;;;;;;;19.29;68.60;100385.03;4976130;28;20665;-68
2023/09/28 02:12:03;;;;;;;3.67;1.83;;;;;;;19.29;68.54;100376.44;4961812;28;20209;-68
2023/09/28 02:14:29;;;;;;;3.13;2.10;;;;;;;19.28;68.87;100379.69;4975297;28;20526;-68
2023/09/28 02:16:55;;;;;;;2.53;1.73;;;;;;;19.28;68.89;100379.69;4971652;28;20279;-68
2023/09/28 02:19:22;;;;;;;2.10;1.30;;;;;;;19.29;68.79;100375.59;4975232;28;20688;-69
2023/09/28 02:21:47;;;;;;;2.50;1.60;;;;;;;19.29;68.69;100390.75;4977966;28;20444;-69
2023/09/28 02:24:13;;;;;;;2.33;1.50;;;;;;;19.28;68.94;100389.13;5010845;28;20408;-67
2023/09/28 02:26:38;;;;;;;2.80;1.90;;;;;;;19.28;68.86;100377.66;4994297;28;20201;-68
2023/09/28 02:29:04;;;;;;;2.43;1.70;;;;;;;19.29;68.74;100390.75;5007286;28;20643;-68
2023/09/28 02:31:31;;;;;;;3.17;1.93;;;;;;;19.29;68.62;100395.66;5009091;28;20196;-68
2023/09/28 02:33:56;;;;;;;5.00;1.60;;;;;;;19.29;68.81;100390.75;5009452;28;20264;-69
2023/09/28 02:36:22;;;;;;;4.03;1.83;;;;;;;19.29;68.38;100384.19;4992413;28;20435;-69
2023/09/28 02:38:47;;;;;;;3.03;1.90;;;;;;;19.28;68.57;100399.72;4960149;28;20197;-68
2023/09/28 02:41:16;;;;;;;2.40;1.50;;;;;;;19.29;68.75;100396.50;4992970;28;20181;-67
2023/09/28 02:43:42;;;;;;;2.97;1.70;;;;;;;19.28;68.62;100386.25;4982217;28;20708;-68
2023/09/28 02:46:07;;;;;;;2.57;1.43;;;;;;;19.29;68.55;100407.09;4973504;28;20433;-69
2023/09/28 02:48:33;;;;;;;2.90;1.70;;;;;;;19.29;68.53;100410.81;4944052;28;20251;-68
2023/09/28 02:50:59;;;;;;;2.93;1.70;;;;;;;19.28;68.68;100414.03;4993750;28;20749;-68
2023/09/28 02:53:25;;;;;;;2.20;1.53;;;;;;;19.30;68.81;100408.75;5006788;28;20420;-68
2023/09/28 02:55:51;;;;;;;2.87;1.80;;;;;;;19.29;68.61;100395.66;4988015;28;20706;-68
2023/09/28 02:58:16;;;;;;;3.47;1.70;;;;;;;19.28;68.75;100400.56;4976202;28;20428;-68
2023/09/28 03:00:42;;;;;;;2.33;1.43;;;;;;;19.28;68.84;100403.44;4993963;28;20227;-68
2023/09/28 03:03:09;;;;;;;3.13;1.73;;;;;;;19.29;68.43;100401.38;5009526;28;20167;-69
2023/09/28 03:05:38;;;;;;;4.30;1.60;;;;;;;19.28;68.43;100400.56;4992845;28;20626;-68
2023/09/28 03:08:07;;;;;;;2.77;1.90;;;;;;;19.29;68.77;100401.38;4973962;28;20571;-68
2023/09/28 03:10:33;;;;;;;2.37;1.50;;;;;;;19.28;68.59;100399.72;4990089;28;21113;-69
2023/09/28 03:12:58;;;;;;;2.80;1.73;;;;;;;19.28;68.61;100406.28;4995660;28;20437;-68
2023/09/28 03:15:24;;;;;;;3.00;1.67;;;;;;;19.29;68.56;100412.81;4958169;28;20297;-68
2023/09/28 03:17:49;;;;;;;4.37;1.87;;;;;;;19.29;68.53;100418.56;4976659;28;20705;-68
2023/09/28 03:20:17;;;;;;;2.47;1.40;;;;;;;19.28;68.84;100423.47;4993449;28;20177;-69
2023/09/28 03:22:46;;;;;;;2.60;1.70;;;;;;;19.28;68.69;100434.06;4993386;28;20184;-68
2023/09/28 03:25:17;;;;;;;3.00;1.70;;;;;;;19.28;68.60;100446.38;4992453;28;20458;-68
2023/09/28 03:27:49;;;;;;;3.30;1.93;;;;;;;19.28;68.55;100446.38;4989431;28;20468;-68
2023/09/28 03:30:15;;;;;;;2.87;1.83;;;;;;;19.28;68.54;100452.09;4992664;28;20546;-68
2023/09/28 03:32:40;;;;;;;2.47;1.70;;;;;;;19.28;68.60;100432.06;4988991;28;20440;-68
2023/09/28 03:35:12;;;;;;;3.17;1.80;;;;;;;19.27;68.68;100421.78;4991858;28;20185;-68
2023/09/28 03:37:38;;;;;;;2.97;1.67;;;;;;;19.28;69.06;100429.19;4987483;28;20598;-68
2023/09/28 03:40:10;;;;;;;3.07;1.83;;;;;;;19.28;68.58;100428.34;4985547;28;20527;-68
2023/09/28 03:42:48;;;;;;;3.30;1.93;;;;;;;19.28;68.54;100443.50;4993200;28;20177;-69
2023/09/28 03:45:15;;;;;;;3.10;1.97;;;;;;;19.28;68.61;100446.38;4989245;28;20515;-68
2023/09/28 03:47:41;;;;;;;2.90;1.87;;;;;;;19.28;68.48;100451.25;4992815;28;20463;-68
2023/09/28 03:50:11;;;;;;;2.50;1.60;;;;;;;19.27;68.65;100444.69;5009057;28;20403;-68
2023/09/28 03:52:37;;;;;;;2.90;1.63;;;;;;;19.26;68.56;100454.50;4994034;28;20432;-69
2023/09/28 03:55:08;;;;;;;3.07;1.80;;;;;;;19.27;68.46;100453.28;4980877;28;20859;-68
2023/09/28 03:57:33;;;;;;;2.33;1.70;;;;;;;19.28;68.48;100460.69;4977315;28;20402;-68
2023/09/28 03:59:59;;;;;;;2.87;1.83;;;;;;;19.27;68.71;100455.34;4974820;28;20443;-67
2023/09/28 04:02:28;;;;;;;2.90;1.80;;;;;;;19.27;68.72;100461.88;4979362;28;20199;-67
2023/09/28 04:04:53;;;;;;;3.50;1.80;;;;;;;19.27;68.61;100461.88;4975957;28;20173;-68
2023/09/28 04:07:19;;;;;;;2.70;1.73;;;;;;;19.27;68.48;100450.41;4970015;28;20464;-68
2023/09/28 04:09:44;;;;;;;2.80;1.67;;;;;;;19.26;68.68;100443.03;4972916;28;20240;-68
2023/09/28 04:12:12;;;;;;;2.67;1.70;;;;;;;19.26;68.59;100447.97;4990375;28;20185;-68
2023/09/28 04:14:37;;;;;;;4.33;1.90;;;;;;;19.26;68.57;100443.03;4973129;28;20182;-68
2023/09/28 04:17:02;;;;;;;2.93;1.50;;;;;;;19.26;68.66;100448.75;4972856;28;20468;-68
2023/09/28 04:19:28;;;;;;;3.20;1.60;;;;;;;19.27;68.63;100444.69;4972819;28;20170;-68
2023/09/28 04:21:53;;;;;;;2.90;2.00;;;;;;;19.26;68.62;100440.19;4981445;28;20256;-68
2023/09/28 04:24:19;;;;;;;2.13;1.33;;;;;;;19.25;68.72;100441.41;4988082;28;20567;-68
2023/09/28 04:26:45;;;;;;;2.97;1.80;;;;;;;19.26;68.42;100428.72;4974206;28;20201;-68
2023/09/28 04:29:10;;;;;;;3.07;1.60;;;;;;;19.26;68.60;100425.06;4971713;28;20198;-68
2023/09/28 04:31:36;;;;;;;3.00;1.80;;;;;;;19.27;68.62;100427.50;4989567;28;20413;-68
2023/09/28 04:34:02;;;;;;;2.57;1.83;;;;;;;19.26;68.38;100420.16;4974527;28;20719;-68
2023/09/28 04:36:27;;;;;;;2.73;1.60;;;;;;;19.26;68.56;100425.88;4955616;28;20184;-68
2023/09/28 04:38:53;;;;;;;2.73;1.67;;;;;;;19.25;68.68;100427.09;4960719;28;20437;-72
2023/09/28 04:41:19;;;;;;;2.53;1.60;;;;;;;19.28;68.61;100439.81;4999477;28;20181;-72
2023/09/28 04:43:44;;;;;;;3.70;2.07;;;;;;;19.27;68.69;100444.69;4993970;28;20177;-71
2023/09/28 04:46:09;;;;;;;2.90;1.53;;;;;;;19.26;68.18;100445.91;4988505;28;20238;-71
2023/09/28 04:48:35;;;;;;;3.37;2.00;;;;;;;19.26;68.37;100453.69;4990526;28;20209;-71
2023/09/28 04:51:00;;;;;;;3.10;1.90;;;;;;;19.25;68.63;100464.28;4977727;28;20154;-72
2023/09/28 04:53:28;;;;;;;2.50;1.57;;;;;;;19.26;68.62;100474.53;4970643;28;20201;-71
2023/09/28 04:55:54;;;;;;;3.17;1.70;;;;;;;19.25;68.78;100481.47;4969587;28;20188;-71
2023/09/28 04:58:19;;;;;;;2.60;1.60;;;;;;;19.26;68.95;100491.69;4990405;28;20431;-71
2023/09/28 05:00:45;;;;;;;2.43;1.63;;;;;;;19.25;68.15;100492.91;4964572;28;20181;-71
2023/09/28 05:03:11;;;;;;;3.83;1.63;;;;;;;19.25;68.68;100498.63;4959810;28;20185;-71
2023/09/28 05:05:37;;;;;;;3.00;1.90;;;;;;;19.26;68.34;100503.16;4975162;28;20188;-71
2023/09/28 05:08:02;;;;;;;2.80;1.80;;;;;;;19.25;68.39;100510.09;4962374;28;20460;-72
2023/09/28 05:10:28;;;;;;;2.97;2.00;;;;;;;19.25;68.40;100509.25;4980539;28;20201;-71
2023/09/28 05:12:53;;;;;;;4.33;2.07;;;;;;;19.25;68.57;100507.22;4975109;28;20189;-71
2023/09/28 05:15:19;;;;;;;2.80;1.73;;;;;;;19.25;68.42;100510.09;4976178;28;20170;-71
2023/09/28 05:17:45;;;;;;;3.10;1.77;;;;;;;19.25;68.60;100506.38;4956572;28;20229;-71
2023/09/28 05:20:11;;;;;;;2.43;1.60;;;;;;;19.24;68.66;100511.31;4971232;28;20178;-72
2023/09/28 05:22:36;;;;;;;2.33;1.60;;;;;;;19.25;68.50;100518.69;4939437;28;20515;-71
2023/09/28 05:25:02;;;;;;;3.90;2.17;;;;;;;19.25;68.42;100503.53;4969853;28;20578;-72
2023/09/28 05:27:28;;;;;;;3.27;2.07;;;;;;;19.24;68.53;100499.84;4971209;28;20202;-71
2023/09/28 05:29:54;;;;;;;2.40;1.50;;;;;;;19.24;68.37;100499.84;4956846;28;20426;-72
2023/09/28 05:32:19;;;;;;;2.80;1.83;;;;;;;19.24;68.62;100491.28;4971345;28;20183;-72
2023/09/28 05:34:45;;;;;;;4.77;1.90;;;;;;;19.25;68.66;100487.19;4972132;28;20171;-71
2023/09/28 05:37:11;;;;;;;3.13;1.80;;;;;;;19.24;68.60;100502.72;4971897;28;20241;-72
2023/09/28 05:39:37;;;;;;;3.73;2.13;;;;;;;19.25;68.44;100494.94;4973718;28;20421;-71
2023/09/28 05:42:03;;;;;;;2.93;2.00;;;;;;;19.23;68.56;100483.91;4975019;28;20603;-71
2023/09/28 05:44:30;;;;;;;2.87;1.80;;;;;;;19.24;68.34;100484.69;4971190;28;20449;-72
2023/09/28 05:46:55;;;;;;;2.50;1.50;;;;;;;19.24;68.62;100497.00;4955896;29;20203;-71
2023/09/28 05:49:21;;;;;;;3.40;1.80;;;;;;;19.24;68.60;100493.28;4953827;28;20431;-68
2023/09/28 05:51:46;;;;;;;4.33;1.80;;;;;;;19.24;68.56;100502.72;4972233;28;20925;-68
2023/09/28 05:54:12;;;;;;;2.63;1.70;;;;;;;19.24;68.57;100499.84;4988038;28;20654;-68
2023/09/28 05:56:37;;;;;;;3.17;2.23;;;;;;;19.23;68.58;100492.47;4955589;28;20230;-68
2023/09/28 05:59:03;;;;;;;2.60;1.90;;;;;;;19.24;68.32;100490.44;4971203;28;20240;-67
2023/09/28 06:01:29;;;;;;;2.63;1.80;;;;;;;19.24;68.56;100488.41;4972508;28;20182;-68
2023/09/28 06:03:55;;;;;;;2.90;1.70;;;;;;;19.24;68.47;100490.44;4968665;28;20685;-68
2023/09/28 06:06:22;;;;;;;4.10;2.20;;;;;;;19.22;68.68;100487.94;4952851;29;20407;-68
2023/09/28 06:08:47;;;;;;;2.73;1.77;;;;;;;19.24;68.70;100493.28;4955560;28;20294;-68
2023/09/28 06:11:13;;;;;;;2.90;1.80;;;;;;;19.24;68.40;100496.16;4987632;28;20446;-68
2023/09/28 06:13:42;;;;;;;2.70;1.60;;;;;;;19.24;68.29;100508.44;4986922;28;20198;-69
2023/09/28 06:16:14;;;;;;;2.80;2.00;;;;;;;19.24;68.56;100505.59;4988366;28;20702;-68
2023/09/28 06:18:40;;;;;;;2.77;1.80;;;;;;;19.23;68.41;100503.94;4986772;28;20735;-68
2023/09/28 06:21:06;;;;;;;3.03;1.80;;;;;;;19.24;68.57;100501.88;4991617;28;20436;-68
2023/09/28 06:23:32;;;;;;;3.40;2.27;;;;;;;19.23;68.48;100501.06;5005880;28;20424;-69
2023/09/28 06:25:57;;;;;;;6.53;1.50;;;;;;;19.23;68.19;100506.78;4990806;28;20599;-68
2023/09/28 06:28:26;;;;;;;3.10;1.70;;;;;;;19.23;68.44;100505.97;4970467;28;20475;-68
2023/09/28 06:30:54;;;;;;;3.40;1.70;;;;;;;19.23;68.49;100523.13;4990006;28;20650;-68
2023/09/28 06:33:24;;;;;;;3.43;1.70;;;;;;;19.23;67.96;100515.38;4973624;28;20797;-67
2023/09/28 06:35:55;;;;;;;2.43;1.60;;;;;;;19.24;68.59;100516.19;4974118;28;20423;-68
2023/09/28 06:38:21;;;;;;;2.63;1.67;;;;;;;19.24;68.51;100530.50;4990853;28;20472;-67
2023/09/28 06:40:48;;;;;;;3.50;2.00;;;;;;;19.24;68.27;100524.78;4999026;28;20973;-68
2023/09/28 06:43:16;;;;;;;2.60;1.60;;;;;;;19.24;68.49;100537.06;4998220;28;20236;-67
2023/09/28 06:45:45;;;;;;;3.57;2.00;;;;;;;19.23;68.43;100546.03;4939708;28;20992;-68
2023/09/28 06:48:10;;;;;;;3.00;1.90;;;;;;;19.23;68.50;100546.88;4977085;28;20455;-67
2023/09/28 06:50:39;;;;;;;2.90;1.77;;;;;;;19.23;68.52;100543.16;4972729;28;20421;-67
2023/09/28 06:53:05;;;;;;;3.50;2.07;;;;;;;19.23;68.48;100540.31;4989998;28;20849;-67
2023/09/28 06:55:30;;;;;;;3.37;2.03;;;;;;;19.23;67.93;100541.16;4971018;28;20446;-67
2023/09/28 06:57:55;;;;;;;3.90;2.40;;;;;;;19.23;68.55;100538.28;4971533;28;20410;-71
2023/09/28 07:00:22;;;;;;;2.97;1.70;;;;;;;19.23;68.55;100529.69;4973974;28;20198;-71
2023/09/28 07:02:48;;;;;;;2.73;1.87;;;;;;;19.23;68.54;100535.41;4991928;28;20181;-71
2023/09/28 07:05:14;;;;;;;3.20;2.00;;;;;;;19.23;68.20;100529.69;4983986;28;20455;-71
2023/09/28 07:07:41;;;;;;;3.10;1.80;;;;;;;19.23;68.28;100529.69;5005810;28;20210;-71
2023/09/28 07:10:07;;;;;;;3.33;1.60;;;;;;;19.24;68.36;100536.22;4975764;28;20457;-72
2023/09/28 07:12:33;;;;;;;2.67;1.87;;;;;;;19.23;68.34;100535.41;4973566;28;20445;-71
2023/09/28 07:14:59;;;;;;;3.27;2.30;;;;;;;19.23;68.38;100535.41;4974189;28;20881;-71
2023/09/28 07:17:24;;;;;;;4.00;2.00;;;;;;;19.24;68.33;100531.34;4982179;28;20303;-71
2023/09/28 07:19:50;;;;;;;2.97;2.10;;;;;;;19.24;68.41;100539.94;4960265;28;20202;-71
2023/09/28 07:22:15;;;;;;;3.60;1.63;;;;;;;19.23;68.31;100537.44;4988654;28;20189;-71
2023/09/28 07:24:41;;;;;;;3.90;2.10;;;;;;;19.23;68.55;100544.00;4991643;28;20185;-72
2023/09/28 07:27:06;;;;;;;3.03;1.93;;;;;;;19.23;68.35;100558.31;4975576;28;20209;-71
2023/09/28 07:29:31;;;;;;;2.97;1.87;;;;;;;19.23;68.55;100552.59;4987350;28;20243;-71
2023/09/28 07:31:58;;;;;;;3.17;2.03;;;;;;;19.23;68.16;100552.59;5008910;28;20174;-71
2023/09/28 07:34:23;;;;;;;3.97;1.93;;;;;;;19.24;67.96;100559.13;5001579;28;20187;-71
2023/09/28 07:36:49;;;;;;;3.23;2.00;;;;;;;19.24;67.97;100562.00;4968903;28;20429;-71
2023/09/28 07:39:14;;;;;;;3.67;1.83;;;;;;;19.24;68.45;100562.84;4993207;28;20208;-71
2023/09/28 07:41:40;;;;;;;2.73;2.00;;;;;;;19.24;68.37;100559.97;4973427;28;20197;-71
2023/09/28 07:44:05;;;;;;;2.90;1.80;;;;;;;19.24;68.48;100559.13;4976315;28;20205;-71
2023/09/28 07:46:31;;;;;;;2.90;1.90;;;;;;;19.23;68.46;100558.31;4973406;28;20209;-71
2023/09/28 07:48:56;;;;;;;3.80;1.93;;;;;;;19.24;68.51;100562.84;4990813;28;20178;-71
2023/09/28 07:51:22;;;;;;;3.33;2.00;;;;;;;19.23;68.50;100552.59;4993071;28;20173;-71
2023/09/28 07:53:47;;;;;;;2.80;1.90;;;;;;;19.23;68.46;100552.59;4991491;28;20705;-71
2023/09/28 07:56:13;;;;;;;6.90;2.03;;;;;;;19.23;68.64;100552.59;4985174;28;20197;-71
2023/09/28 07:58:39;;;;;;;3.40;1.93;;;;;;;19.24;68.20;100559.97;4970790;28;20654;-71
2023/09/28 08:01:04;;;;;;;2.63;1.73;;;;;;;19.24;68.50;100565.69;4979749;28;20582;-72
2023/09/28 08:03:30;;;;;;;3.60;2.30;;;;;;;19.25;68.47;100569.38;4990192;28;20197;-72
2023/09/28 08:05:55;;;;;;;2.40;1.70;;;;;;;19.24;68.44;100573.44;4989403;28;20229;-70
2023/09/28 08:08:20;;;;;;;2.63;1.60;;;;;;;19.24;68.61;100577.16;4972021;28;20272;-69
2023/09/28 08:10:47;;;;;;;3.00;1.70;;;;;;;19.24;68.45;100585.72;4971121;28;20235;-70
2023/09/28 08:13:13;;;;;;;3.00;1.67;;;;;;;19.24;68.32;100577.16;4971830;28;20194;-71
2023/09/28 08:15:38;;;;;;;2.80;1.70;;;;;;;19.24;68.30;100576.31;4984592;28;20444;-70
2023/09/28 08:18:04;;;;;;;3.57;2.13;;;;;;;19.25;68.14;100580.81;4991208;28;20601;-70
2023/09/28 08:20:29;;;;;;;3.27;1.93;;;;;;;19.24;68.26;100582.88;4990391;28;20204;-70
2023/09/28 08:22:54;;;;;;;2.80;1.97;;;;;;;19.25;68.38;100592.25;4990761;28;20239;-70
2023/09/28 08:25:20;;;;;;;2.73;1.53;;;;;;;19.25;67.87;100590.25;4988417;28;20966;-70
2023/09/28 08:27:46;;;;;;;3.10;1.60;;;;;;;19.24;68.21;100588.59;5008917;28;20209;-70
2023/09/28 08:30:11;;;;;;;2.77;1.70;;;;;;;19.26;68.31;100596.81;4990452;28;20212;-70
2023/09/28 08:32:37;;;;;;;3.50;2.20;;;;;;;19.24;68.73;100594.31;5004801;28;20180;-70
2023/09/28 08:35:03;;;;;;;3.30;2.00;;;;;;;19.25;68.45;100590.25;4991065;28;20575;-70
2023/09/28 08:37:28;;;;;;;3.53;2.10;;;;;;;19.25;68.40;100590.25;4965181;28;20197;-70
2023/09/28 08:39:54;;;;;;;3.60;1.80;;;;;;;19.25;68.21;100598.81;4991274;28;20427;-70
2023/09/28 08:42:23;;;;;;;2.90;1.87;;;;;;;19.25;68.41;100598.81;4988102;28;20193;-70
2023/09/28 08:44:49;;;;;;;3.67;1.93;;;;;;;19.26;68.18;100596.81;4988011;28;20440;-72
2023/09/28 08:47:19;;;;;;;3.13;1.90;;;;;;;19.26;68.17;100603.34;5002379;28;20522;-70
2023/09/28 08:49:47;;;;;;;3.33;2.00;;;;;;;19.25;68.28;100595.97;4960195;28;20530;-71
2023/09/28 08:52:14;;;;;;;3.80;1.90;;;;;;;19.25;68.55;100595.97;4975876;28;20451;-71
2023/09/28 08:54:39;;;;;;;3.17;1.80;;;;;;;19.26;68.38;100603.34;5006600;28;20557;-71
2023/09/28 08:57:05;;;;;;;3.40;1.90;;;;;;;19.25;68.49;100607.41;4999773;28;20440;-71
2023/09/28 08:59:30;;;;;;;2.70;1.60;;;;;;;19.26;68.59;100605.41;4995352;28;20247;-72
2023/09/28 09:01:57;;;;;;;3.70;2.07;;;;;;;19.27;68.31;100607.03;4995198;28;20193;-71
2023/09/28 09:04:23;;;;;;;3.10;1.60;;;;;;;19.26;68.43;100609.06;4980492;28;20176;-71
2023/09/28 09:06:48;;;;;;;2.57;1.60;;;;;;;19.26;68.40;100603.34;4977524;28;20471;-72
2023/09/28 09:09:15;;;;;;;2.53;1.40;;;;;;;19.27;68.21;100607.03;4992514;28;20179;-71
2023/09/28 09:11:52;;;;;;;3.30;1.70;;;;;;;19.27;68.21;100610.72;4972154;28;20205;-71
2023/09/28 09:14:20;;;;;;;2.80;1.70;;;;;;;19.26;68.59;100609.06;4990880;28;20437;-71
2023/09/28 09:16:46;;;;;;;2.77;1.90;;;;;;;19.27;68.42;100610.72;4970609;28;20474;-71
2023/09/28 09:19:14;;;;;;;3.17;1.70;;;;;;;19.27;68.10;100616.44;4978212;28;20424;-70
2023/09/28 09:21:41;;;;;;;2.53;1.67;;;;;;;19.27;67.87;100616.44;4993183;28;20181;-70
2023/09/28 09:24:18;;;;;;;3.40;2.10;;;;;;;19.29;68.08;100616.91;4987978;28;20467;-70
2023/09/28 09:26:44;;;;;;;2.80;1.80;;;;;;;19.27;68.18;100610.72;4978228;28;20833;-70
2023/09/28 09:29:11;;;;;;;3.20;1.90;;;;;;;19.29;68.13;100610.34;5010098;28;20490;-70
2023/09/28 09:31:40;;;;;;;2.53;1.60;;;;;;;19.27;68.42;100613.59;4977050;28;20435;-70
2023/09/28 09:34:18;;;;;;;3.00;1.47;;;;;;;19.27;68.21;100613.59;4978022;28;20430;-70
2023/09/28 09:36:51;;;;;;;3.03;2.10;;;;;;;19.28;68.48;100606.69;5008761;28;20451;-69
2023/09/28 09:39:27;;;;;;;5.70;2.07;;;;;;;19.27;68.25;100596.41;5009751;28;20835;-69
2023/09/28 09:41:53;;;;;;;3.13;1.77;;;;;;;19.28;68.53;100595.22;4990321;28;20542;-70
2023/09/28 09:44:20;;;;;;;3.47;2.00;;;;;;;19.28;68.13;100589.50;4993813;28;20455;-69
2023/09/28 09:46:47;;;;;;;5.80;2.13;;;;;;;19.28;68.42;100583.78;4974513;28;20235;-70
2023/09/28 09:49:13;;;;;;;3.07;1.67;;;;;;;19.28;68.24;100580.06;5008005;28;20420;-70
2023/09/28 09:51:39;;;;;;;2.87;1.60;;;;;;;19.28;68.23;100571.47;4976792;28;20861;-70
2023/09/28 09:54:05;;;;;;;2.97;1.73;;;;;;;19.29;68.25;100568.25;4973941;28;20467;-70
2023/09/28 09:56:32;;;;;;;3.40;2.20;;;;;;;19.28;68.21;100560.03;4969003;28;20277;-69
2023/09/28 09:58:57;;;;;;;3.07;1.87;;;;;;;19.29;67.71;100570.25;4986157;28;20444;-70
2023/09/28 10:01:23;;;;;;;10.90;2.90;;;;;;;19.42;69.04;100566.03;4988414;28;21140;-68
2023/09/28 10:03:52;;;;;;;6.00;3.03;;;;;;;19.58;69.95;100564.72;4980694;28;20801;-67
2023/09/28 10:06:21;;;;;;;6.40;3.20;;;;;;;19.68;70.90;100569.81;4995890;28;20185;-69
2023/09/28 10:08:49;;;;;;;8.30;3.83;;;;;;;19.73;71.45;100568.63;4981406;28;20436;-67
2023/09/28 10:11:15;;;;;;;9.60;4.27;;;;;;;19.82;70.25;100575.75;4980332;28;20471;-68
2023/09/28 10:13:41;;;;;;;9.43;4.40;;;;;;;19.91;73.32;100569.78;4963845;28;20434;-70
2023/09/28 10:16:08;;;;;;;8.50;5.07;;;;;;;19.88;76.01;100565.66;4972180;28;20465;-71
2023/09/28 10:18:35;;;;;;;10.00;5.20;;;;;;;19.96;75.59;100572.31;4952704;28;20182;-69
2023/09/28 10:21:00;;;;;;;9.80;4.87;;;;;;;20.01;73.99;100554.81;4970377;28;21099;-69
2023/09/28 10:23:26;;;;;;;15.07;4.80;;;;;;;20.08;73.83;100561.50;4968434;28;20434;-68
2023/09/28 10:26:14;;;;;;;10.40;4.90;;;;;;;20.06;73.86;100561.00;4934410;28;20257;-70
2023/09/28 10:29:04;;;;;;;13.10;5.07;;;;;;;20.12;73.65;100561.56;4954011;28;20378;-69
2023/09/28 10:31:34;;;;;;;10.10;5.00;;;;;;;20.19;72.33;100556.78;4963626;28;20466;-69
2023/09/28 10:34:04;;;;;;;10.50;5.90;;;;;;;20.27;70.78;100558.50;4969967;28;20441;-68
2023/09/28 10:36:30;;;;;;;15.60;6.20;;;;;;;20.22;70.26;100555.97;4974045;28;20442;-68
2023/09/28 10:39:14;;;;;;;12.60;5.00;;;;;;;20.13;71.18;100568.94;4967120;28;20462;-69
2023/09/28 10:41:46;;;;;;;13.10;5.03;;;;;;;20.24;69.94;100567.91;4970505;28;20429;-68
2023/09/28 10:44:30;;;;;;;8.33;5.37;;;;;;;20.38;69.35;100567.28;4954134;28;20441;-70
2023/09/28 10:46:56;;;;;;;9.93;4.83;;;;;;;20.37;69.43;100554.97;4963701;28;20989;-68
2023/09/28 10:49:22;;;;;;;7.57;4.70;;;;;;;20.30;69.01;100563.47;4971481;28;20584;-68
2023/09/28 10:51:48;;;;;;;12.07;5.30;;;;;;;20.33;69.02;100565.59;4963354;28;20180;-69
2023/09/28 10:54:14;;;;;;;9.40;4.83;;;;;;;20.43;68.42;100566.94;4971530;28;20857;-69
2023/09/28 10:56:39;;;;;;;10.30;4.87;;;;;;;20.51;67.97;100569.53;4952307;28;20480;-70
2023/09/28 10:59:09;;;;;;;7.83;4.77;;;;;;;20.57;67.17;100567.97;4965104;28;20182;-68
2023/09/28 11:02:01;;;;;;;14.80;4.97;;;;;;;20.58;66.30;100571.69;4961383;28;20251;-73
2023/09/28 11:04:28;;;;;;;16.50;5.60;;;;;;;20.76;65.55;100564.97;4964975;28;20994;-67
2023/09/28 11:06:54;;;;;;;9.90;5.20;;;;;;;20.70;66.58;100559.94;4966842;28;20535;-70
2023/09/28 11:09:19;;;;;;;8.70;5.20;;;;;;;20.63;67.04;100566.41;4969044;28;20434;-69
2023/09/28 11:11:45;;;;;;;8.03;5.23;;;;;;;20.65;66.25;100558.25;4947574;28;20281;-69
2023/09/28 11:14:14;;;;;;;7.63;4.67;;;;;;;20.70;66.10;100557.06;4969715;28;20214;-71
2023/09/28 11:16:40;;;;;;;8.50;5.10;;;;;;;20.83;65.21;100559.31;4958630;28;20280;-70
2023/09/28 11:19:05;;;;;;;8.20;5.70;;;;;;;20.82;66.43;100549.03;4966090;28;20527;-68
2023/09/28 11:21:31;;;;;;;8.90;4.87;;;;;;;20.85;65.69;100545.41;4984732;28;20452;-69
2023/09/28 11:23:57;;;;;;;11.57;5.77;;;;;;;21.03;65.26;100539.91;4973574;28;20554;-72